Weather observations for the past three days for
Clinton, MO
Imperial (Metric)
Date Time (cdt) Wind (mph) Vis. (mi.) Weather Sky Cond. Temperature (ºF) Relative Humidity Wind Chill (°F) Heat Index (°F) Pressure Precipitation (in)
Air Dwpt 6 hour altimeter (in) sea level (mb) 1 hr 3 hr 6 hr
Max. Min.
04 20:15 SW 10 G 17 10.00 Partly Cloudy SCT060 75.2 59 57% 78 29.62 0.0
04 19:55 SW 12 10.00 Mostly Cloudy BKN060 75.2 59 57% 78 29.61 0.0
04 19:35 SW 9 10.00 Fair CLR 75.2 59 57% 78 29.61 0.0
04 19:15 S 7 10.00 Fair CLR 77 59 54% 79 29.61 0.0
04 18:55 SW 10 9.00 Fair CLR 78.8 59 51% 80 29.6 0.0
04 18:35 SW 10 10.00 Fair CLR 77 59 54% 79 29.6 0.0
04 18:15 SW 9 9.00 Fair CLR 77 59 54% 79 29.6 0.0
04 17:55 SW 7 G 18 10.00 Fair CLR 78.8 59 51% 80 29.6 0.0
04 17:35 SW 15 G 22 10.00 Fair CLR 78.8 57.2 48% 80 29.61 0.0
04 17:15 SW 17 10.00 Fair CLR 78.8 57.2 48% 80 29.61 0.0
04 16:55 SW 17 G 23 10.00 Fair CLR 80.6 57.2 45% 81 29.61 0.0
04 16:35 SW 14 G 22 9.00 Fair CLR 78.8 57.2 48% 80 29.62 0.0
04 16:15 SW 14 G 24 10.00 Fair CLR 80.6 57.2 45% 81 29.61 0.0
04 15:55 SW 16 G 25 10.00 Fair CLR 80.6 59 48% 81 29.62 0.0
04 15:35 SW 14 G 23 10.00 Fair CLR 80.6 59 48% 81 29.63 0.0
04 15:15 SW 18 G 28 9.00 Fair CLR 80.6 57.2 45% 81 29.63 0.0
04 14:55 SW 18 10.00 Fair CLR 80.6 59 48% 81 29.64 0.0
04 14:35 SW 17 G 25 9.00 Fair CLR 80.6 57.2 45% 81 29.64 0.0
04 14:15 SW 20 10.00 Fair CLR 80.6 57.2 45% 81 29.64 0.0
04 13:55 SW 16 G 26 9.00 Fair CLR 78.8 57.2 48% 80 29.64 0.0
04 13:35 SW 17 G 26 9.00 Fair CLR 78.8 57.2 48% 80 29.65 0.0
04 13:15 SW 16 G 22 9.00 Fair CLR 77 57.2 51% 79 29.65 0.0
04 12:55 SW 17 G 24 10.00 Fair CLR 77 57.2 51% 79 29.66 0.0
04 12:35 SW 15 G 22 10.00 Fair CLR 77 57.2 51% 79 29.66 0.0
04 12:15 SW 14 9.00 Fair CLR 77 57.2 51% 79 29.66 0.0
04 11:55 SW 13 9.00 Fair CLR 73.4 55.4 53% 29.66 0.0
04 11:30 W 10 G 20 9.00 Fair CLR 71.6 53.6 53% 29.67 0.0
04 11:15 S 12 G 22 10.00 Fair CLR 71.6 53.6 53% 29.67 0.0
04 10:55 SW 15 9.00 Fair CLR 71.6 53.6 53% 29.68 0.0
04 10:35 SW 13 G 23 10.00 Fair CLR 71.6 51.8 50% 29.69 0.0
04 10:15 SW 16 G 29 10.00 Fair CLR 73.4 51.8 47% 29.69 0.0
04 09:55 SW 14 G 21 10.00 Fair CLR 73.4 51.8 47% 29.68 0.0
04 09:35 SW 23 G 29 10.00 Fair and Breezy CLR 71.6 50 47% 29.67 0.0
04 09:15 SW 17 G 26 10.00 Fair CLR 71.6 50 47% 29.68 0.0
04 08:55 SW 14 G 20 10.00 Fair CLR 69.8 50 50% 29.69 0.0
04 08:35 SW 10 G 20 10.00 Fair CLR 69.8 50 50% 29.68 0.0
04 08:15 SW 13 G 21 9.00 Fair CLR 68 50 53% 29.69 0.0
04 07:55 SW 12 10.00 Fair CLR 68 48.2 49% 29.69 0.0
04 07:35 SW 10 G 20 10.00 Fair CLR 66.2 48.2 52% 29.69 0.0
04 06:55 S 12 G 21 10.00 Fair CLR 66.2 46.4 49% 29.69 0.0
04 06:35 S 14 G 21 10.00 Fair CLR 64.4 46.4 52% 29.69 0.0
04 06:15 S 14 10.00 Fair CLR 64.4 46.4 52% 29.7 0.0
04 05:55 SW 13 10.00 Fair CLR 66.2 46.4 49% 29.7 0.0
04 05:35 SW 10 G 20 10.00 Fair CLR 66.2 46.4 49% 29.71 0.0
04 05:15 SW 9 G 16 10.00 Fair CLR 64.4 48.2 56% 29.72 0.0
04 04:55 SW 12 10.00 Fair CLR 64.4 46.4 52% 29.72 0.0
04 04:35 SW 10 10.00 Fair CLR 64.4 48.2 56% 29.72 0.0
04 04:15 SW 10 10.00 Fair CLR 64.4 48.2 56% 29.73 0.0
04 03:55 SW 8 G 16 10.00 Fair CLR 64.4 48.2 56% 29.74 0.0
04 03:35 SW 9 G 15 10.00 Fair CLR 66.2 48.2 52% 29.74 0.0
04 03:15 SW 10 G 16 10.00 Fair CLR 66.2 48.2 52% 29.74 0.0
04 02:55 SW 9 G 18 10.00 Fair CLR 66.2 48.2 52% 29.74 0.0
04 02:35 SW 12 G 17 10.00 Fair CLR 66.2 48.2 52% 29.74 0.0
04 02:15 SW 12 G 18 10.00 Fair CLR 68 48.2 49% 29.74 0.0
04 01:55 SW 12 G 17 10.00 Fair CLR 68 48.2 49% 29.75 0.0
04 01:35 SW 10 10.00 Fair CLR 68 48.2 49% 29.76 0.0
04 01:15 SW 12 10.00 Fair CLR 68 48.2 49% 29.76 0.0
04 00:55 SW 10 10.00 Fair CLR 68 48.2 49% 29.76 0.0
04 00:35 SW 8 10.00 Fair CLR 68 50 53% 29.76 0.0
04 00:15 SW 8 10.00 Fair CLR 68 50 53% 29.77 0.0
03 23:55 S 6 10.00 Fair CLR 68 50 53% 29.77 0.0
03 23:35 S 10 10.00 Fair CLR 68 50 53% 29.77 0.0
03 23:15 S 10 10.00 Fair CLR 68 50 53% 29.77 0.0
03 22:55 S 9 10.00 Fair CLR 69.8 51.8 53% 29.77 0.0
03 22:35 S 12 10.00 Fair CLR 69.8 51.8 53% 29.78 0.0
03 22:15 S 8 G 15 10.00 Fair CLR 69.8 51.8 53% 29.78 0.0
03 21:55 S 8 10.00 Fair CLR 69.8 51.8 53% 29.79 0.0
03 21:30 S 7 10.00 Fair CLR 69.8 53.6 57% 29.78 0.0
03 21:15 S 7 10.00 Fair CLR 69.8 53.6 57% 29.78 0.0
03 20:55 S 7 10.00 Fair CLR 69.8 53.6 57% 29.79 0.0
03 20:35 S 7 10.00 Fair CLR 71.6 53.6 53% 29.79 0.0
03 20:15 S 7 10.00 Fair CLR 71.6 53.6 53% 29.78 0.0
03 19:55 S 7 10.00 Fair CLR 71.6 53.6 53% 29.79 0.0
03 19:35 S 6 10.00 Fair CLR 73.4 53.6 50% 29.79 0.0
03 19:15 SW 8 G 14 9.00 Fair CLR 75.2 53.6 47% 78 29.8 0.0
03 18:55 SW 6 10.00 Fair CLR 75.2 53.6 47% 78 29.8 0.0
03 18:35 SW 9 G 16 10.00 Fair CLR 77 51.8 42% 78 29.8 0.0
03 18:15 SW 8 G 16 10.00 Fair CLR 78.8 51.8 39% 79 29.81 0.0
03 17:55 SW 10 G 18 10.00 Fair CLR 78.8 51.8 39% 79 29.81 0.0
03 17:35 SW 15 10.00 Fair CLR 78.8 50 37% 79 29.81 0.0
03 17:15 SW 14 G 23 10.00 Fair CLR 78.8 50 37% 79 29.81 0.0
03 16:55 SW 16 10.00 Fair CLR 80.6 50 34% 80 29.82 0.0
03 16:35 SW 15 G 21 10.00 Fair CLR 80.6 51.8 37% 80 29.82 0.0
03 16:15 SW 14 10.00 Fair CLR 78.8 50 37% 79 29.83 0.0
03 15:55 W 17 G 24 9.00 Fair CLR 78.8 51.8 39% 79 29.83 0.0
03 15:35 SW 17 G 24 10.00 Fair CLR 78.8 50 37% 79 29.84 0.0
03 15:15 SW 17 G 24 10.00 Fair CLR 78.8 51.8 39% 79 29.85 0.0
03 14:55 SW 16 G 23 10.00 Fair CLR 77 51.8 42% 78 29.86 0.0
03 14:35 SW 15 9.00 Fair CLR 77 51.8 42% 78 29.87 0.0
03 14:15 SW 17 G 24 9.00 Fair CLR 77 51.8 42% 78 29.88 0.0
03 13:55 SW 15 G 22 10.00 Fair CLR 77 51.8 42% 78 29.89 0.0
03 13:35 SW 16 G 23 10.00 Fair CLR 75.2 51.8 44% 78 29.9 0.0
03 13:15 SW 14 G 22 10.00 Fair CLR 75.2 51.8 44% 78 29.91 0.0
03 12:55 SW 17 10.00 Fair CLR 73.4 50 44% 29.92 0.0
03 12:35 SW 15 G 22 10.00 Fair CLR 73.4 50 44% 29.94 0.0
03 12:15 S 14 G 22 9.00 Fair CLR 73.4 50 44% 29.94 0.0
03 11:55 SW 18 10.00 Fair CLR 71.6 48.2 44% 29.95 0.0
03 11:35 SW 18 10.00 Fair CLR 69.8 48.2 46% 29.95 0.0
03 11:15 SW 15 9.00 Fair CLR 69.8 48.2 46% 29.97 0.0
03 10:55 SW 12 G 17 10.00 Fair CLR 68 46.4 46% 29.98 0.0
03 10:35 SW 12 G 18 10.00 Fair CLR 64.4 44.6 49% 29.99 0.0
03 10:15 S 14 G 20 10.00 Fair CLR 62.6 42.8 49% 29.99 0.0
03 09:55 SW 10 G 21 10.00 Fair CLR 62.6 42.8 49% 30 0.0
03 09:35 SW 9 G 16 10.00 Fair CLR 60.8 41 48% 30.01 0.0
03 09:15 S 8 G 15 10.00 Fair CLR 59 41 51% 30.01 0.0
03 08:55 S 9 10.00 Fair CLR 57.2 41 55% 30.01 0.0
03 08:35 S 8 10.00 Fair CLR 55.4 41 59% 30.02 0.0
03 08:15 S 10 10.00 Fair CLR 53.6 41 63% 30.02 0.0
03 07:55 S 7 10.00 Fair CLR 51.8 41 67% 30.02 0.0
03 07:35 S 9 10.00 Fair CLR 50 39.2 67% 47 30.02 0.0
03 07:15 S 8 9.00 Fair CLR 48.2 39.2 71% 45 30.03 0.0
03 06:55 S 7 9.00 Fair CLR 48.2 39.2 71% 46 30.03 0.0
03 06:35 S 7 10.00 Fair CLR 46.4 39.2 76% 43 30.02 0.0
03 06:15 S 8 10.00 Fair CLR 46.4 39.2 76% 43 30.02 0.0
03 05:35 S 7 10.00 Fair CLR 46.4 39.2 76% 43 30.03 0.0
03 05:15 S 6 10.00 Fair CLR 46.4 37.4 71% 44 30.03 0.0
03 04:35 S 7 10.00 Fair CLR 46.4 37.4 71% 43 30.04 0.0
03 04:15 S 6 10.00 Fair CLR 46.4 37.4 71% 44 30.04 0.0
03 03:55 S 6 10.00 Fair CLR 46.4 39.2 76% 44 30.05 0.0
03 03:35 S 7 10.00 Fair CLR 46.4 37.4 71% 43 30.05 0.0
03 03:15 S 5 10.00 Fair CLR 46.4 37.4 71% 45 30.05 0.0
03 02:55 S 6 10.00 Fair CLR 44.6 37.4 76% 42 30.05 0.0
03 02:35 S 3 10.00 Fair CLR 46.4 37.4 71% 30.05 0.0
03 02:15 Calm 10.00 Fair CLR 44.6 37.4 76% 30.06 0.0
03 01:55 Calm 10.00 Fair CLR 44.6 39.2 81% 30.07 0.0
03 01:35 S 6 10.00 Fair CLR 44.6 39.2 81% 42 30.07 0.0
03 01:15 Calm 10.00 Fair CLR 42.8 39.2 87% 30.08 0.0
03 00:55 Calm 10.00 Fair CLR 44.6 41 87% 30.09 0.0
03 00:35 Calm 9.00 Fair CLR 44.6 41 87% 30.09 0.0
03 00:15 Calm 9.00 Fair CLR 44.6 41 87% 30.09 0.0
02 23:55 Calm 8.00 Fair CLR 42.8 41 93% 30.1 0.0
02 23:35 Calm 9.00 Fair CLR 42.8 41 93% 30.1 0.0
02 23:15 Calm 10.00 Fair CLR 44.6 41 87% 30.1 0.0
02 22:55 Calm 9.00 Fair CLR 44.6 41 87% 30.1 0.0
02 22:35 Calm 10.00 Fair CLR 46.4 41 82% 30.1 0.0
02 22:15 Calm 9.00 Fair CLR 48.2 41 76% 30.11 0.0
02 21:55 Calm 9.00 Fair CLR 48.2 41 76% 30.1 0.0
02 21:35 Calm 9.00 A Few Clouds FEW050 48.2 41 76% 30.1 0.0
02 21:15 Calm 9.00 A Few Clouds FEW050 50 41 71% 30.1 0.0
02 20:55 Calm 9.00 A Few Clouds FEW050 50 39.2 67% 30.09 0.0
02 20:35 Calm 9.00 Fair CLR 51.8 39.2 62% 30.09 0.0
02 20:15 Calm 9.00 Fair CLR 53.6 41 63% 30.09 0.0
02 19:55 Calm 10.00 Fair CLR 59 35.6 42% 30.09 0.0
02 19:35 Calm 10.00 Fair CLR 59 37.4 45% 30.09 0.0
02 19:15 Calm 10.00 Fair CLR 60.8 37.4 42% 30.09 0.0
02 18:55 Calm 10.00 Fair CLR 60.8 35.6 39% 30.09 0.0
02 18:35 Calm 10.00 Fair CLR 62.6 32 32% 30.1 0.0
02 18:15 NW 7 10.00 Fair CLR 62.6 33.8 34% 30.1 0.0
02 17:55 W 8 9.00 Fair CLR 62.6 33.8 34% 30.1 0.0
02 17:35 Calm 10.00 Fair CLR 62.6 33.8 34% 30.1 0.0
02 17:15 W 7 G 16 9.00 Fair CLR 62.6 33.8 34% 30.1 0.0
02 16:55 Calm 10.00 Fair CLR 62.6 33.8 34% 30.1 0.0
02 16:35 N 6 7.00 Fair CLR 62.6 33.8 34% 30.11 0.0
02 16:15 Calm 10.00 Fair CLR 62.6 32 32% 30.11 0.0
02 15:55 N 7 10.00 Fair CLR 62.6 33.8 34% 30.12 0.0
02 15:35 NW 7 9.00 Fair CLR 62.6 33.8 34% 30.12 0.0
02 15:15 N 8 7.00 Fair CLR 62.6 33.8 34% 30.13 0.0
02 14:55 W 9 7.00 Fair CLR 62.6 33.8 34% 30.13 0.0
02 14:35 Vrbl 7 9.00 A Few Clouds FEW065 62.6 33.8 34% 30.14 0.0
02 14:15 W 8 10.00 Partly Cloudy SCT065 60.8 35.6 39% 30.14 0.0
02 13:55 NW 9 10.00 Fair CLR 60.8 33.8 36% 30.15 0.0
02 13:35 NW 8 10.00 Fair CLR 60.8 35.6 39% 30.15 0.0
02 13:15 Vrbl 3 G 13 9.00 Fair CLR 59 33.8 39% 30.15 0.0
02 12:55 Vrbl 5 9.00 Partly Cloudy SCT060 59 35.6 42% 30.16 0.0
02 12:35 Vrbl 5 G 13 10.00 A Few Clouds FEW060 59 35.6 42% 30.16 0.0
02 12:15 Calm 10.00 Fair CLR 59 33.8 39% 30.16 0.0
02 11:55 Calm 10.00 A Few Clouds FEW055 FEW065 59 35.6 42% 30.17 0.0
02 11:35 Calm 10.00 Partly Cloudy SCT055 SCT065 57.2 35.6 44% 30.17 0.0
02 11:15 N 8 10.00 A Few Clouds FEW055 57.2 33.8 41% 30.17 0.0
02 10:55 N 6 G 12 9.00 A Few Clouds FEW060 57.2 37.4 48% 30.17 0.0
02 10:35 N 7 10.00 Fair CLR 55.4 37.4 51% 30.17 0.0
02 10:15 N 8 10.00 Fair CLR 57.2 41 55% 30.17 0.0
02 09:55 N 8 10.00 Fair CLR 55.4 41 59% 30.16 0.0
02 09:35 NE 7 10.00 A Few Clouds FEW060 53.6 41 63% 30.16 0.0
02 09:15 N 7 10.00 Partly Cloudy SCT060 53.6 41 63% 30.16 0.0
02 08:55 Calm 9.00 Partly Cloudy SCT060 50 42.8 76% 30.15 0.0
02 08:35 N 5 10.00 Partly Cloudy SCT060 48.2 41 76% 47 30.15 0.0
02 08:15 N 3 10.00 Fair CLR 48.2 41 76% 30.15 0.0
02 07:55 Calm 9.00 Fair CLR 46.4 41 82% 30.14 0.0
02 07:35 Calm 10.00 Fair CLR 44.6 39.2 81% 30.13 0.0
02 07:15 Calm 9.00 Fair CLR 42.8 37.4 81% 30.13 0.0
02 06:55 Calm 10.00 Fair CLR 41 37.4 87% 30.12 0.0
02 06:35 Calm 10.00 Fair CLR 41 35.6 81% 30.11 0.0
02 06:15 Calm 10.00 Fair CLR 42.8 35.6 76% 30.11 0.0
02 05:55 Calm 0.00 Fair CLR 41 35.6 81% 30.11 0.0
02 05:35 Calm 10.00 Fair CLR 41 35.6 81% 30.1 0.0
02 05:15 Calm 10.00 Fair CLR 41 35.6 81% 30.09 0.0
02 04:55 Calm 10.00 Fair CLR 41 35.6 81% 30.09 0.0
02 04:35 Calm 10.00 Fair CLR 41 35.6 81% 30.09 0.0
02 04:15 N 5 10.00 Fair CLR 41 35.6 81% 38 30.08 0.0
02 03:55 N 6 10.00 Fair CLR 41 35.6 81% 38 30.08 0.0
02 03:35 N 5 10.00 Fair CLR 42.8 35.6 76% 41 30.07 0.0
02 03:15 NW 5 10.00 Fair CLR 42.8 35.6 76% 41 30.07 0.0
02 02:55 NW 5 10.00 Fair CLR 44.6 35.6 71% 43 30.07 0.0
02 02:15 Calm 10.00 Fair CLR 42.8 37.4 81% 30.07 0.0
02 01:55 NW 5 10.00 Fair CLR 44.6 35.6 71% 43 30.07 0.0
02 01:35 NW 5 10.00 Fair CLR 46.4 37.4 71% 45 30.07 0.0
02 01:15 NW 3 10.00 Fair CLR 46.4 37.4 71% 30.07 0.0
02 00:55 W 5 10.00 A Few Clouds FEW085 44.6 39.2 81% 43 30.07 0.0
02 00:35 W 3 10.00 Partly Cloudy SCT085 46.4 39.2 76% 30.07 0.0
02 00:15 Calm 10.00 Partly Cloudy SCT090 44.6 39.2 81% 30.07 0.0
01 23:55 Calm 10.00 Mostly Cloudy BKN090 48.2 37.4 66% 30.07 0.0
01 23:35 Calm 10.00 Partly Cloudy SCT090 46.4 41 82% 30.07 0.0
01 23:15 Calm 10.00 Fair CLR 46.4 39.2 76% 30.07 0.0
01 22:55 Calm 10.00 A Few Clouds FEW080 48.2 41 76% 30.07 0.0
01 22:35 Calm 10.00 Mostly Cloudy BKN085 48.2 39.2 71% 30.07 0.0
01 22:15 Calm 10.00 A Few Clouds FEW090 50 41 71% 30.07 0.0
01 21:55 NW 3 10.00 Mostly Cloudy BKN095 53.6 39.2 58% 30.07 0.0
01 21:35 NW 3 10.00 Mostly Cloudy BKN090 51.8 41 67% 30.06 0.0
01 21:15 N 3 10.00 Mostly Cloudy BKN090 51.8 42.8 72% 30.05 0.0
01 20:55 Calm 10.00 Mostly Cloudy BKN090 53.6 35.6 51% 30.04 0.0
Date Time (cdt) Wind (mph) Vis. (mi.) Weather Sky Cond. Air Dwpt Max. Min. Relative Humidity Wind Chill (°F) Heat Index (°F) altimeter (in) sea level (mb) 1 hr 3 hr 6 hr
6 hour
Temperature (ºF) Pressure Precipitation (in)